createdAt,value
2023-07-25T00:00:53.728Z,6.45
2023-07-25T00:03:19.936Z,7.22
2023-07-25T00:05:46.180Z,6.30
2023-07-25T00:08:12.371Z,6.75
2023-07-25T00:10:38.665Z,6.68
2023-07-25T00:13:04.948Z,6.57
2023-07-25T00:15:31.209Z,4.63
2023-07-25T00:17:57.539Z,3.92
2023-07-25T00:20:23.815Z,3.92
2023-07-25T00:22:50.154Z,3.08
2023-07-25T00:25:16.415Z,3.10
2023-07-25T00:27:42.686Z,2.85
2023-07-25T00:30:08.929Z,3.30
2023-07-25T00:32:35.285Z,2.40
2023-07-25T00:35:01.530Z,2.58
2023-07-25T00:37:27.768Z,3.00
2023-07-25T00:39:53.988Z,3.00
2023-07-25T00:42:20.259Z,2.55
2023-07-25T00:44:46.530Z,3.53
2023-07-25T00:47:12.799Z,3.35
2023-07-25T00:49:39.007Z,3.80
2023-07-25T00:52:05.231Z,3.60
2023-07-25T00:54:31.476Z,4.05
2023-07-25T00:56:57.738Z,4.15
2023-07-25T00:59:23.933Z,3.65
2023-07-25T01:01:50.242Z,3.70
2023-07-25T01:04:16.471Z,4.13
2023-07-25T01:06:42.697Z,3.70
2023-07-25T01:09:08.928Z,3.22
2023-07-25T01:11:35.193Z,3.65
2023-07-25T01:14:01.448Z,3.17
2023-07-25T01:16:27.700Z,3.58
2023-07-25T01:18:53.994Z,3.53
2023-07-25T01:21:20.441Z,4.13
2023-07-25T01:23:46.649Z,3.53
2023-07-25T01:26:12.927Z,4.43
2023-07-25T01:28:39.148Z,3.92
2023-07-25T01:31:05.383Z,3.90
2023-07-25T01:33:31.691Z,4.97
2023-07-25T01:35:57.971Z,3.72
2023-07-25T01:38:24.655Z,4.47
2023-07-25T01:40:50.893Z,4.75
2023-07-25T01:43:17.151Z,4.72
2023-07-25T01:45:43.477Z,4.68
2023-07-25T01:48:09.732Z,5.07
2023-07-25T01:50:35.931Z,5.35
2023-07-25T01:53:02.148Z,5.43
2023-07-25T01:55:28.427Z,4.72
2023-07-25T01:57:54.676Z,5.03
2023-07-25T02:00:20.906Z,5.45
2023-07-25T02:02:47.206Z,4.95
2023-07-25T02:05:13.506Z,5.32
2023-07-25T02:07:39.836Z,5.88
2023-07-25T02:10:06.103Z,5.65
2023-07-25T02:12:32.485Z,6.78
2023-07-25T02:14:58.732Z,6.60
2023-07-25T02:17:24.991Z,6.95
2023-07-25T02:19:51.441Z,7.53
2023-07-25T02:22:17.796Z,6.97
2023-07-25T02:24:44.039Z,6.95
2023-07-25T02:27:10.276Z,8.20
2023-07-25T02:29:36.481Z,7.60
2023-07-25T02:32:02.709Z,7.18
2023-07-25T02:34:28.992Z,7.32
2023-07-25T02:36:55.270Z,7.57
2023-07-25T02:39:21.549Z,8.77
2023-07-25T02:41:47.741Z,8.98
2023-07-25T02:44:13.999Z,8.55
2023-07-25T02:46:40.298Z,8.13
2023-07-25T02:49:06.599Z,9.35
2023-07-25T02:51:33.106Z,8.15
2023-07-25T02:53:59.639Z,8.73
2023-07-25T02:56:25.824Z,9.13
2023-07-25T02:58:52.094Z,10.32
2023-07-25T03:01:19.055Z,9.60
2023-07-25T03:03:45.301Z,9.00
2023-07-25T03:06:11.540Z,10.45
2023-07-25T03:08:37.750Z,9.77
2023-07-25T03:11:03.989Z,9.85
2023-07-25T03:13:31.720Z,10.13
2023-07-25T03:15:57.903Z,9.90
2023-07-25T03:18:24.159Z,10.43
2023-07-25T03:20:50.436Z,10.35
2023-07-25T03:23:16.733Z,10.32
2023-07-25T03:25:42.984Z,10.60
2023-07-25T03:28:09.210Z,9.82
2023-07-25T03:30:35.556Z,10.27
2023-07-25T03:33:01.829Z,7.90
2023-07-25T03:35:28.107Z,8.85
2023-07-25T03:37:54.376Z,8.82
2023-07-25T03:40:20.604Z,9.10
2023-07-25T03:42:46.867Z,8.70
2023-07-25T03:45:13.076Z,8.48
2023-07-25T03:47:39.396Z,8.57
2023-07-25T03:50:05.733Z,8.32
2023-07-25T03:52:32.036Z,8.07
2023-07-25T03:54:58.253Z,8.25
2023-07-25T03:57:24.493Z,6.78
2023-07-25T03:59:50.681Z,7.35
2023-07-25T04:02:16.954Z,7.80
2023-07-25T04:04:43.360Z,6.93
2023-07-25T04:07:09.656Z,7.53
2023-07-25T04:09:35.875Z,7.80
2023-07-25T04:12:02.103Z,7.20
2023-07-25T04:14:28.332Z,7.78
2023-07-25T04:16:54.557Z,7.75
2023-07-25T04:19:20.831Z,7.35
2023-07-25T04:21:47.192Z,8.07
2023-07-25T04:24:13.715Z,9.02
2023-07-25T04:26:40.029Z,8.32
2023-07-25T04:29:06.391Z,9.40
2023-07-25T04:31:32.899Z,8.73
2023-07-25T04:33:59.583Z,9.77
2023-07-25T04:36:25.919Z,9.40
2023-07-25T04:38:52.200Z,10.50
2023-07-25T04:41:18.424Z,10.65
2023-07-25T04:43:44.693Z,11.95
2023-07-25T04:46:10.908Z,11.40
2023-07-25T04:48:37.227Z,11.82
2023-07-25T04:51:03.493Z,12.45
2023-07-25T04:53:31.707Z,10.13
2023-07-25T04:55:57.907Z,10.18
2023-07-25T04:58:24.149Z,11.63
2023-07-25T05:00:50.358Z,11.80
2023-07-25T05:03:16.623Z,11.38
2023-07-25T05:05:43.071Z,12.05
2023-07-25T05:08:09.336Z,11.75
2023-07-25T05:10:35.613Z,10.63
2023-07-25T05:13:01.870Z,11.90
2023-07-25T05:15:28.127Z,11.00
2023-07-25T05:17:54.397Z,11.13
2023-07-25T05:20:20.682Z,10.02
2023-07-25T05:22:47.534Z,8.90
2023-07-25T05:25:13.760Z,9.20
2023-07-25T05:27:39.999Z,8.65
2023-07-25T05:30:06.284Z,8.55
2023-07-25T05:32:33.822Z,8.57
2023-07-25T05:35:01.023Z,8.60
2023-07-25T05:37:27.278Z,8.25
2023-07-25T05:39:53.476Z,8.65
2023-07-25T05:42:19.761Z,8.00
2023-07-25T05:44:45.993Z,8.40
2023-07-25T05:47:12.222Z,7.85
2023-07-25T05:49:38.419Z,7.30
2023-07-25T05:52:04.647Z,9.10
2023-07-25T05:54:30.922Z,7.28
2023-07-25T05:56:57.171Z,7.13
2023-07-25T05:59:23.421Z,7.90
2023-07-25T06:01:49.674Z,7.07
2023-07-25T06:04:15.893Z,6.60
2023-07-25T06:06:42.080Z,6.32
2023-07-25T06:09:08.296Z,5.55
2023-07-25T06:11:34.748Z,5.60
2023-07-25T06:14:01.052Z,5.72
2023-07-25T06:16:27.384Z,5.10
2023-07-25T06:18:53.648Z,5.78
2023-07-25T06:21:19.921Z,5.75
2023-07-25T06:23:46.194Z,5.93
2023-07-25T06:26:12.442Z,5.30
2023-07-25T06:28:38.706Z,6.85
2023-07-25T06:31:05.046Z,5.85
2023-07-25T06:33:31.350Z,5.90
2023-07-25T06:35:57.641Z,5.35
2023-07-25T06:38:23.834Z,4.10
2023-07-25T06:40:50.103Z,4.20
2023-07-25T06:43:16.342Z,4.53
2023-07-25T06:45:42.541Z,4.13
2023-07-25T06:48:08.780Z,3.65
2023-07-25T06:50:34.984Z,3.58
2023-07-25T06:53:01.205Z,3.20
2023-07-25T06:55:27.456Z,3.28
2023-07-25T06:57:53.737Z,3.42
2023-07-25T07:00:20.024Z,3.75
2023-07-25T07:02:46.340Z,3.47
2023-07-25T07:05:23.843Z,2.47
2023-07-25T07:07:56.048Z,2.90
2023-07-25T07:10:22.298Z,2.17
2023-07-25T07:12:48.554Z,2.72
2023-07-25T07:15:14.792Z,2.15
2023-07-25T07:17:41.007Z,2.50
2023-07-25T07:20:07.287Z,2.22
2023-07-25T07:22:33.512Z,2.00
2023-07-25T07:24:59.712Z,2.10
2023-07-25T07:27:25.949Z,2.17
2023-07-25T07:29:52.173Z,2.03
2023-07-25T07:32:18.423Z,2.58
2023-07-25T07:34:44.750Z,2.75
2023-07-25T07:37:11.081Z,2.20
2023-07-25T07:39:37.284Z,2.33
2023-07-25T07:42:03.510Z,2.53
2023-07-25T07:44:29.706Z,2.10
2023-07-25T07:46:55.926Z,2.30
2023-07-25T07:49:22.139Z,2.22
2023-07-25T07:52:05.049Z,1.95
2023-07-25T07:54:34.609Z,2.42
2023-07-25T07:57:00.987Z,2.80
2023-07-25T07:59:27.252Z,2.03
2023-07-25T08:01:53.576Z,2.15
2023-07-25T08:04:20.049Z,2.40
2023-07-25T08:06:46.330Z,2.00
2023-07-25T08:09:12.991Z,2.10
2023-07-25T08:11:39.233Z,2.13
2023-07-25T08:14:05.514Z,2.08
2023-07-25T08:16:31.860Z,2.42
2023-07-25T08:18:58.190Z,1.67
2023-07-25T08:21:24.488Z,1.88
2023-07-25T08:23:50.738Z,1.60
2023-07-25T08:26:16.976Z,2.58
2023-07-25T08:28:43.274Z,1.85
2023-07-25T08:31:09.512Z,2.30
2023-07-25T08:33:35.726Z,2.65
2023-07-25T08:36:02.033Z,1.60
2023-07-25T08:38:28.307Z,1.98
2023-07-25T08:40:54.566Z,1.88
2023-07-25T08:43:20.853Z,2.20
2023-07-25T08:45:47.093Z,1.80
2023-07-25T08:48:13.457Z,1.83
2023-07-25T08:50:39.804Z,1.95
2023-07-25T08:53:06.024Z,1.73
2023-07-25T08:55:32.240Z,2.30
2023-07-25T08:57:58.476Z,2.35
2023-07-25T09:00:24.715Z,1.80
2023-07-25T09:02:53.912Z,2.25
2023-07-25T09:05:20.546Z,1.75
2023-07-25T09:07:46.813Z,1.63
2023-07-25T09:10:13.049Z,1.73
2023-07-25T09:12:39.272Z,1.40
2023-07-25T09:15:05.547Z,1.73
2023-07-25T09:17:31.887Z,1.77
2023-07-25T09:19:58.173Z,1.92
2023-07-25T09:22:24.403Z,2.08
2023-07-25T09:24:50.707Z,1.60
2023-07-25T09:27:17.042Z,1.83
2023-07-25T09:29:43.320Z,1.88
2023-07-25T09:32:09.580Z,1.80
2023-07-25T09:34:37.937Z,2.08
2023-07-25T09:37:05.480Z,2.55
2023-07-25T09:39:32.382Z,1.88
2023-07-25T09:41:58.710Z,2.10
2023-07-25T09:44:24.987Z,1.83
2023-07-25T09:46:51.205Z,1.35
2023-07-25T09:49:17.448Z,1.75
2023-07-25T09:51:43.684Z,1.85
2023-07-25T09:54:09.932Z,2.38
2023-07-25T09:56:37.966Z,2.13
2023-07-25T09:59:07.615Z,2.70
2023-07-25T10:01:34.393Z,2.70
2023-07-25T10:04:00.946Z,2.35
2023-07-25T10:06:27.198Z,2.40
2023-07-25T10:08:53.490Z,3.08
2023-07-25T10:11:19.745Z,2.75
2023-07-25T10:13:45.941Z,2.80
2023-07-25T10:16:12.248Z,2.35
2023-07-25T10:18:38.637Z,3.33
2023-07-25T10:21:04.984Z,2.75
2023-07-25T10:23:31.791Z,2.92
2023-07-25T10:25:58.102Z,3.90
2023-07-25T10:28:24.390Z,4.00
2023-07-25T10:30:50.623Z,3.45
2023-07-25T10:33:16.856Z,3.67
2023-07-25T10:35:43.104Z,3.60
2023-07-25T10:38:09.821Z,3.70
2023-07-25T10:40:36.249Z,3.47
2023-07-25T10:43:07.430Z,2.92
2023-07-25T10:45:34.215Z,2.75
2023-07-25T10:48:00.668Z,2.47
2023-07-25T10:50:26.941Z,2.00
2023-07-25T10:52:53.205Z,1.58
2023-07-25T10:55:19.463Z,1.30
2023-07-25T10:57:45.812Z,1.65
2023-07-25T11:00:12.063Z,1.35
2023-07-25T11:02:38.368Z,1.20
2023-07-25T11:05:04.630Z,1.65
2023-07-25T11:07:30.879Z,1.30
2023-07-25T11:09:57.134Z,1.70
2023-07-25T11:12:23.355Z,1.60
2023-07-25T11:14:49.630Z,1.40
2023-07-25T11:17:15.960Z,1.67
2023-07-25T11:19:42.240Z,1.58
2023-07-25T11:22:08.483Z,1.70
2023-07-25T11:24:34.772Z,1.85
2023-07-25T11:27:01.048Z,1.70
2023-07-25T11:29:27.287Z,1.90
2023-07-25T11:31:53.520Z,1.95
2023-07-25T11:34:19.793Z,1.70
2023-07-25T11:36:46.047Z,2.05
2023-07-25T11:39:12.307Z,1.90
2023-07-25T11:41:38.631Z,1.65
2023-07-25T11:44:04.923Z,1.80
2023-07-25T11:46:33.299Z,1.50
2023-07-25T11:48:59.523Z,1.38
2023-07-25T11:51:25.779Z,1.60
2023-07-25T11:53:52.070Z,1.65
2023-07-25T11:56:18.361Z,1.55
2023-07-25T11:58:45.762Z,1.73
2023-07-25T12:01:12.067Z,1.38
2023-07-25T12:03:38.360Z,1.70
2023-07-25T12:06:04.647Z,1.65
2023-07-25T12:08:30.864Z,1.70
2023-07-25T12:10:57.085Z,1.65
2023-07-25T12:13:23.290Z,1.75
2023-07-25T12:15:49.551Z,2.40
2023-07-25T12:18:15.807Z,1.90
2023-07-25T12:20:56.257Z,2.10
2023-07-25T12:23:24.620Z,1.92
2023-07-25T12:25:50.848Z,2.67
2023-07-25T12:28:17.085Z,2.22
2023-07-25T12:30:43.321Z,1.80
2023-07-25T12:33:09.644Z,1.90
2023-07-25T12:35:35.888Z,2.50
2023-07-25T12:38:02.088Z,2.40
2023-07-25T12:40:28.306Z,2.30
2023-07-25T12:42:54.535Z,2.30
2023-07-25T12:45:20.799Z,2.60
2023-07-25T12:47:47.002Z,2.28
2023-07-25T12:50:13.270Z,2.22
2023-07-25T12:52:39.576Z,2.08
2023-07-25T12:55:05.774Z,2.22
2023-07-25T12:57:32.179Z,2.65
2023-07-25T12:59:58.421Z,2.10
2023-07-25T13:02:24.786Z,2.80
2023-07-25T13:04:51.195Z,2.83
2023-07-25T13:07:17.524Z,2.10
2023-07-25T13:09:43.797Z,2.33
2023-07-25T13:12:10.080Z,2.53
2023-07-25T13:14:36.327Z,2.25
2023-07-25T13:17:02.625Z,2.53
2023-07-25T13:19:28.971Z,2.63
2023-07-25T13:21:55.273Z,3.05
2023-07-25T13:24:21.551Z,2.50
2023-07-25T13:26:47.822Z,2.80
2023-07-25T13:29:14.214Z,3.30
2023-07-25T13:31:40.442Z,2.67
2023-07-25T13:34:06.677Z,3.00
2023-07-25T13:36:32.950Z,3.20
2023-07-25T13:38:59.178Z,2.72
2023-07-25T13:41:25.498Z,2.63
2023-07-25T13:43:51.731Z,2.67
2023-07-25T13:46:17.963Z,2.50
2023-07-25T13:48:44.231Z,2.40
2023-07-25T13:51:10.457Z,2.67
2023-07-25T13:53:36.722Z,1.63
2023-07-25T13:56:02.994Z,1.63
2023-07-25T13:58:29.249Z,1.52
2023-07-25T14:00:55.502Z,1.55
2023-07-25T14:03:21.744Z,1.30
2023-07-25T14:05:48.009Z,2.00
2023-07-25T14:08:14.265Z,2.08
2023-07-25T14:10:40.574Z,1.75
2023-07-25T14:13:06.809Z,1.50
2023-07-25T14:15:33.208Z,1.83
2023-07-25T14:17:59.539Z,2.20
2023-07-25T14:20:26.015Z,2.03
2023-07-25T14:22:52.405Z,2.22
2023-07-25T14:25:18.684Z,1.85
2023-07-25T14:27:45.024Z,1.95
2023-07-25T14:30:11.327Z,2.45
2023-07-25T14:32:37.602Z,2.63
2023-07-25T14:35:03.845Z,1.90
2023-07-25T14:37:36.986Z,1.88
2023-07-25T14:40:14.737Z,2.03
2023-07-25T14:42:41.005Z,2.25
2023-07-25T14:45:07.240Z,1.90
2023-07-25T14:47:33.589Z,2.20
2023-07-25T14:49:59.943Z,2.30
2023-07-25T14:52:26.182Z,1.70
2023-07-25T14:54:52.460Z,1.80
2023-07-25T14:57:18.733Z,2.10
2023-07-25T14:59:45.030Z,1.98
2023-07-25T15:02:11.359Z,1.88
2023-07-25T15:04:37.623Z,2.17
2023-07-25T15:07:03.879Z,5.03
2023-07-25T15:09:30.149Z,2.63
2023-07-25T15:11:56.445Z,2.80
2023-07-25T15:14:23.076Z,2.15
2023-07-25T15:16:51.209Z,2.10
2023-07-25T15:19:17.590Z,2.45
2023-07-25T15:21:43.784Z,1.60
2023-07-25T15:24:10.060Z,1.70
2023-07-25T15:26:36.327Z,1.63
2023-07-25T15:29:02.729Z,1.70
2023-07-25T15:31:29.004Z,1.55
2023-07-25T15:33:55.446Z,1.40
2023-07-25T15:36:21.691Z,1.77
2023-07-25T15:38:47.917Z,1.65
2023-07-25T15:41:14.140Z,1.60
2023-07-25T15:43:40.750Z,1.42
2023-07-25T15:46:07.040Z,1.92
2023-07-25T15:48:33.347Z,1.40
2023-07-25T15:50:59.577Z,1.80
2023-07-25T15:53:25.838Z,1.75
2023-07-25T15:55:52.110Z,1.67
2023-07-25T15:58:18.360Z,1.23
2023-07-25T16:00:44.643Z,1.73
2023-07-25T16:03:10.979Z,2.03
2023-07-25T16:05:37.329Z,1.40
2023-07-25T16:08:03.586Z,1.85
2023-07-25T16:10:29.820Z,1.63
2023-07-25T16:12:56.372Z,1.50
2023-07-25T16:15:23.138Z,1.70
2023-07-25T16:17:49.405Z,1.67
2023-07-25T16:20:15.736Z,1.67
2023-07-25T16:22:41.991Z,1.75
2023-07-25T16:25:09.276Z,2.05
2023-07-25T16:27:35.497Z,1.42
2023-07-25T16:30:02.906Z,1.58
2023-07-25T16:32:29.316Z,1.73
2023-07-25T16:34:55.653Z,2.13
2023-07-25T16:37:21.951Z,2.75
2023-07-25T16:39:48.182Z,1.20
2023-07-25T16:42:14.507Z,1.27
2023-07-25T16:44:40.776Z,1.73
2023-07-25T16:47:07.019Z,1.65
2023-07-25T16:49:33.249Z,1.60
2023-07-25T16:51:59.526Z,1.50
2023-07-25T16:54:25.724Z,1.70
2023-07-25T16:56:52.157Z,2.40
2023-07-25T16:59:18.346Z,1.90
2023-07-25T17:01:44.649Z,1.90
2023-07-25T17:04:10.940Z,2.40
2023-07-25T17:06:37.172Z,1.75
2023-07-25T17:09:03.418Z,1.45
2023-07-25T17:11:30.082Z,1.75
2023-07-25T17:13:56.618Z,1.92
2023-07-25T17:16:22.925Z,1.20
2023-07-25T17:18:49.261Z,2.25
2023-07-25T17:21:18.608Z,1.85
2023-07-25T17:23:49.786Z,1.73
2023-07-25T17:26:16.058Z,1.50
2023-07-25T17:28:42.304Z,1.83
2023-07-25T17:31:08.659Z,2.47
2023-07-25T17:33:34.943Z,4.00
2023-07-25T17:36:01.223Z,1.92
2023-07-25T17:38:27.565Z,2.13
2023-07-25T17:40:53.905Z,2.10
2023-07-25T17:43:20.369Z,2.15
2023-07-25T17:45:46.735Z,1.95
2023-07-25T17:48:12.979Z,2.30
2023-07-25T17:50:39.267Z,2.15
2023-07-25T17:53:05.499Z,2.10
2023-07-25T17:55:31.729Z,3.08
2023-07-25T17:57:58.088Z,2.50
2023-07-25T18:00:24.363Z,2.97
2023-07-25T18:02:50.699Z,2.90
2023-07-25T18:05:17.016Z,2.75
2023-07-25T18:07:43.259Z,3.55
2023-07-25T18:10:09.481Z,3.25
2023-07-25T18:12:35.680Z,3.20
2023-07-25T18:15:01.934Z,3.03
2023-07-25T18:17:28.520Z,3.13
2023-07-25T18:19:54.957Z,2.95
2023-07-25T18:22:21.216Z,3.10
2023-07-25T18:24:47.444Z,2.75
2023-07-25T18:27:13.707Z,3.13
2023-07-25T18:29:39.930Z,2.78
2023-07-25T18:32:06.183Z,3.30
2023-07-25T18:34:32.408Z,2.95
2023-07-25T18:36:58.672Z,3.85
2023-07-25T18:39:24.862Z,2.53
2023-07-25T18:41:51.154Z,2.60
2023-07-25T18:44:17.355Z,2.40
2023-07-25T18:46:43.632Z,2.70
2023-07-25T18:49:09.826Z,2.75
2023-07-25T18:51:36.057Z,3.00
2023-07-25T18:54:02.308Z,2.55
2023-07-25T18:56:28.498Z,2.75
2023-07-25T18:58:54.783Z,2.05
2023-07-25T19:01:21.032Z,1.45
2023-07-25T19:03:47.341Z,1.17
2023-07-25T19:06:13.616Z,1.23
2023-07-25T19:08:40.020Z,1.63
2023-07-25T19:11:06.367Z,1.02
2023-07-25T19:13:32.639Z,0.80
2023-07-25T19:15:58.921Z,0.80
2023-07-25T19:18:25.434Z,0.90
2023-07-25T19:20:51.792Z,0.70
2023-07-25T19:23:25.713Z,0.70
2023-07-25T19:25:52.626Z,0.60
2023-07-25T19:28:19.041Z,0.80
2023-07-25T19:30:45.302Z,0.80
2023-07-25T19:33:11.590Z,0.85
2023-07-25T19:35:39.061Z,0.95
2023-07-25T19:38:06.478Z,0.82
2023-07-25T19:40:32.761Z,0.70
2023-07-25T19:42:59.044Z,0.90
2023-07-25T19:45:25.244Z,0.80
2023-07-25T19:47:51.588Z,0.90
2023-07-25T19:50:17.890Z,0.82
2023-07-25T19:52:44.137Z,0.93
2023-07-25T19:55:10.437Z,0.70
2023-07-25T19:57:36.694Z,0.88
2023-07-25T20:00:02.990Z,0.65
2023-07-25T20:02:29.347Z,1.13
2023-07-25T20:04:55.701Z,0.60
2023-07-25T20:07:21.935Z,0.73
2023-07-25T20:09:48.199Z,0.90
2023-07-25T20:12:14.440Z,0.85
2023-07-25T20:14:40.669Z,0.80
2023-07-25T20:17:06.880Z,0.80
2023-07-25T20:19:33.182Z,1.25
2023-07-25T20:21:59.455Z,1.00
2023-07-25T20:24:25.914Z,1.42
2023-07-25T20:26:52.255Z,0.85
2023-07-25T20:29:18.520Z,0.98
2023-07-25T20:31:44.750Z,1.27
2023-07-25T20:34:11.015Z,0.80
2023-07-25T20:36:37.269Z,1.35
2023-07-25T20:39:03.496Z,1.02
2023-07-25T20:41:29.703Z,0.70
2023-07-25T20:43:55.930Z,0.90
2023-07-25T20:46:22.220Z,1.30
2023-07-25T20:48:48.497Z,1.05
2023-07-25T20:51:15.073Z,0.98
2023-07-25T20:53:41.321Z,1.30
2023-07-25T20:56:07.696Z,1.05
2023-07-25T20:58:34.045Z,0.90
2023-07-25T21:01:00.264Z,1.10
2023-07-25T21:03:26.610Z,1.40
2023-07-25T21:05:52.890Z,1.10
2023-07-25T21:08:24.181Z,1.83
2023-07-25T21:10:50.444Z,1.00
2023-07-25T21:13:16.638Z,1.00
2023-07-25T21:15:42.894Z,1.25
2023-07-25T21:18:13.596Z,1.05
2023-07-25T21:20:40.447Z,1.13
2023-07-25T21:23:06.724Z,0.85
2023-07-25T21:25:33.003Z,1.20
2023-07-25T21:27:59.286Z,0.90
2023-07-25T21:30:25.767Z,1.08
2023-07-25T21:32:52.044Z,0.85
2023-07-25T21:35:18.347Z,1.00
2023-07-25T21:37:44.591Z,1.33
2023-07-25T21:40:10.795Z,1.30
2023-07-25T21:42:37.066Z,1.00
2023-07-25T21:45:03.295Z,1.40
2023-07-25T21:47:29.588Z,1.20
2023-07-25T21:49:55.865Z,1.30
2023-07-25T21:52:22.103Z,0.90
2023-07-25T21:54:48.380Z,0.98
2023-07-25T21:57:14.596Z,1.05
2023-07-25T21:59:40.808Z,1.08
2023-07-25T22:02:07.051Z,1.25
2023-07-25T22:04:33.391Z,1.27
2023-07-25T22:06:59.699Z,1.00
2023-07-25T22:09:25.977Z,1.20
2023-07-25T22:11:52.190Z,0.95
2023-07-25T22:14:18.386Z,1.27
2023-07-25T22:16:44.717Z,1.08
2023-07-25T22:19:10.930Z,1.20
2023-07-25T22:21:37.112Z,0.90
2023-07-25T22:24:03.334Z,0.90
2023-07-25T22:26:29.891Z,0.90
2023-07-25T22:28:56.361Z,0.98
2023-07-25T22:31:22.635Z,1.00
2023-07-25T22:33:48.863Z,1.33
2023-07-25T22:36:15.093Z,1.00
2023-07-25T22:38:41.373Z,0.90
2023-07-25T22:41:07.628Z,1.48
2023-07-25T22:43:33.885Z,1.05
2023-07-25T22:46:00.204Z,1.40
2023-07-25T22:48:26.513Z,1.10
2023-07-25T22:50:52.786Z,1.35
2023-07-25T22:53:19.004Z,1.60
2023-07-25T22:55:45.239Z,1.15
2023-07-25T22:58:11.502Z,1.48
2023-07-25T23:00:37.719Z,1.88
2023-07-25T23:03:04.106Z,1.50
2023-07-25T23:05:30.509Z,1.10
2023-07-25T23:07:56.740Z,1.10
2023-07-25T23:10:22.966Z,0.80
2023-07-25T23:12:49.162Z,1.20
2023-07-25T23:15:15.475Z,0.90
2023-07-25T23:17:41.745Z,1.10
2023-07-25T23:20:08.087Z,0.75
2023-07-25T23:22:34.379Z,1.15
2023-07-25T23:25:00.620Z,1.17
2023-07-25T23:27:26.948Z,1.10
2023-07-25T23:29:53.199Z,1.10
2023-07-25T23:32:19.430Z,1.00
2023-07-25T23:34:45.718Z,0.90
2023-07-25T23:37:11.999Z,0.90
2023-07-25T23:39:38.276Z,1.50
2023-07-25T23:42:04.491Z,1.00
2023-07-25T23:44:30.716Z,1.40
2023-07-25T23:46:56.979Z,0.95
2023-07-25T23:49:23.249Z,1.17
2023-07-25T23:51:49.478Z,1.33
2023-07-25T23:54:15.718Z,1.20
2023-07-25T23:56:41.991Z,1.40
2023-07-25T23:59:08.245Z,1.00
